Time,TemperatureF,DewpointF,PressureIn,WindDirection,WindDirectionDegrees,WindSpeedMPH,WindSpeedGustMPH,Humidity,HourlyPrecipIn,Conditions,Clouds,dailyrainin,SolarRadiationWatts/m^2,SoftwareType,DateUTC
2013-01-17 00:02:00,51.0,50.0,-100.00,SW,215,0.0,4.0,96,0.00,,,0.00,0.000000,,2013-01-17 10:02:00,
2013-01-17 00:11:00,51.0,50.0,-100.00,SW,215,0.0,4.0,96,0.00,,,0.00,0.000000,,2013-01-17 10:11:00,
2013-01-17 00:22:00,49.0,48.0,-100.00,South,170,0.0,2.0,95,0.00,,,0.00,0.000000,,2013-01-17 10:22:00,
2013-01-17 00:43:00,49.0,48.0,-100.00,South,170,0.0,2.0,95,0.00,,,0.00,0.000000,,2013-01-17 10:43:00,
2013-01-17 00:53:00,49.0,48.0,-100.00,South,170,0.0,2.0,95,0.00,,,0.00,0.000000,,2013-01-17 10:53:00,
2013-01-17 01:02:00,49.0,48.0,-100.00,South,170,0.0,2.0,95,0.00,,,0.00,0.000000,,2013-01-17 11:02:00,
2013-01-17 01:11:00,49.0,48.0,-100.00,South,170,0.0,2.0,95,0.00,,,0.00,0.000000,,2013-01-17 11:11:00,
2013-01-17 01:22:00,49.0,48.0,-100.00,SSE,155,0.0,1.0,96,0.00,,,0.00,0.000000,,2013-01-17 11:22:00,
2013-01-17 01:43:00,49.0,48.0,-100.00,SSE,155,0.0,1.0,96,0.00,,,0.00,0.000000,,2013-01-17 11:43:00,
2013-01-17 01:53:00,49.0,48.0,-100.00,SSE,155,0.0,1.0,96,0.00,,,0.00,0.000000,,2013-01-17 11:53:00,
2013-01-17 02:02:00,49.0,48.0,-100.00,SSE,155,0.0,1.0,96,0.00,,,0.00,0.000000,,2013-01-17 12:02:00,
2013-01-17 02:12:00,49.0,48.0,-100.00,SSE,155,0.0,1.0,96,0.00,,,0.00,0.000000,,2013-01-17 12:12:00,
2013-01-17 02:22:00,49.0,48.0,-100.00,SE,139,0.0,1.0,95,0.00,,,0.00,0.000000,,2013-01-17 12:22:00,
2013-01-17 02:43:00,49.0,48.0,-100.00,SE,139,0.0,1.0,95,0.00,,,0.00,0.000000,,2013-01-17 12:43:00,
2013-01-17 02:53:00,49.0,48.0,-100.00,SE,139,0.0,1.0,95,0.00,,,0.00,0.000000,,2013-01-17 12:53:00,
2013-01-17 03:03:00,49.0,48.0,-100.00,SE,139,0.0,1.0,95,0.00,,,0.00,0.000000,,2013-01-17 13:03:00,
2013-01-17 03:12:00,49.0,48.0,-100.00,SE,139,0.0,1.0,95,0.00,,,0.00,0.000000,,2013-01-17 13:12:00,
2013-01-17 03:22:00,49.0,48.0,-100.00,SSE,161,0.0,2.0,95,0.00,,,0.00,0.000000,,2013-01-17 13:22:00,
2013-01-17 03:43:00,49.0,48.0,-100.00,SSE,161,0.0,2.0,95,0.00,,,0.00,0.000000,,2013-01-17 13:43:00,
2013-01-17 03:53:00,49.0,48.0,-100.00,SSE,161,0.0,2.0,95,0.00,,,0.00,0.000000,,2013-01-17 13:53:00,
2013-01-17 04:03:00,49.0,48.0,-100.00,SSE,161,0.0,2.0,95,0.00,,,0.00,0.000000,,2013-01-17 14:03:00,
2013-01-17 04:12:00,49.0,48.0,-100.00,SSE,161,0.0,2.0,95,0.00,,,0.00,0.000000,,2013-01-17 14:12:00,
2013-01-17 04:22:00,50.0,49.0,-100.00,SSE,166,0.0,1.0,95,0.00,,,0.00,0.000000,,2013-01-17 14:22:00,
2013-01-17 04:43:00,50.0,49.0,-100.00,SSE,166,0.0,1.0,95,0.00,,,0.00,0.000000,,2013-01-17 14:43:00,
2013-01-17 04:53:00,50.0,49.0,-100.00,SSE,166,0.0,1.0,95,0.00,,,0.00,0.000000,,2013-01-17 14:53:00,
2013-01-17 05:03:00,50.0,49.0,-100.00,SSE,166,0.0,1.0,95,0.00,,,0.00,0.000000,,2013-01-17 15:03:00,
2013-01-17 05:12:00,50.0,49.0,-100.00,SSE,166,0.0,1.0,95,0.00,,,0.00,0.000000,,2013-01-17 15:12:00,
2013-01-17 05:22:00,52.0,51.0,-100.00,SW,228,0.0,1.0,95,0.00,,,0.00,0.000000,,2013-01-17 15:22:00,
2013-01-17 05:43:00,52.0,51.0,-100.00,SW,228,0.0,1.0,95,0.00,,,0.00,0.000000,,2013-01-17 15:43:00,
2013-01-17 05:53:00,52.0,51.0,-100.00,SW,228,0.0,1.0,95,0.00,,,0.00,0.000000,,2013-01-17 15:53:00,
2013-01-17 06:02:00,52.0,51.0,-100.00,SW,228,0.0,1.0,95,0.00,,,0.00,0.000000,,2013-01-17 16:02:00,
2013-01-17 06:12:00,52.0,51.0,-100.00,SW,228,0.0,1.0,95,0.00,,,0.00,0.000000,,2013-01-17 16:12:00,
2013-01-17 06:22:00,52.0,51.0,-100.00,South,171,0.0,1.0,95,0.00,,,-99.99,0.000000,,2013-01-17 16:22:00,
2013-01-17 06:53:00,52.0,51.0,-100.00,South,171,0.0,1.0,95,0.00,,,-99.99,0.000000,,2013-01-17 16:53:00,
2013-01-17 07:02:00,52.0,51.0,-100.00,South,171,0.0,1.0,95,0.00,,,-99.99,0.000000,,2013-01-17 17:02:00,
2013-01-17 07:12:00,52.0,51.0,-100.00,South,171,0.0,1.0,95,0.00,,,-99.99,0.000000,,2013-01-17 17:12:00,
2013-01-17 07:22:00,51.0,50.0,-100.00,SSE,148,0.0,1.0,96,0.00,,,0.00,0.000000,,2013-01-17 17:22:00,
2013-01-17 07:43:00,51.0,50.0,-100.00,SSE,148,0.0,1.0,96,0.00,,,0.00,0.000000,,2013-01-17 17:43:00,
2013-01-17 07:53:00,51.0,50.0,-100.00,SSE,148,0.0,1.0,96,0.00,,,0.00,0.000000,,2013-01-17 17:53:00,
2013-01-17 08:03:00,51.0,50.0,-100.00,SSE,148,0.0,1.0,96,0.00,,,0.00,0.000000,,2013-01-17 18:03:00,
2013-01-17 08:12:00,51.0,50.0,-100.00,SSE,148,0.0,1.0,96,0.00,,,0.00,0.000000,,2013-01-17 18:12:00,
2013-01-17 08:22:00,51.0,50.0,-100.00,ESE,116,0.0,1.0,96,0.00,,,0.00,23.000000,,2013-01-17 18:22:00,
2013-01-17 08:44:00,51.0,50.0,-100.00,ESE,116,0.0,1.0,96,0.00,,,0.00,23.000000,,2013-01-17 18:44:00,
2013-01-17 08:53:00,51.0,50.0,-100.00,ESE,116,0.0,1.0,96,0.00,,,0.00,23.000000,,2013-01-17 18:53:00,
2013-01-17 09:03:00,51.0,50.0,-100.00,ESE,116,0.0,1.0,96,0.00,,,0.00,23.000000,,2013-01-17 19:03:00,
2013-01-17 09:12:00,51.0,50.0,-100.00,ESE,116,0.0,1.0,96,0.00,,,0.00,23.000000,,2013-01-17 19:12:00,
2013-01-17 09:22:00,54.0,52.0,-100.00,West,276,0.0,2.0,94,0.00,,,-99.99,74.000000,,2013-01-17 19:22:00,
2013-01-17 09:53:00,54.0,52.0,-100.00,West,276,0.0,2.0,94,0.00,,,-99.99,74.000000,,2013-01-17 19:53:00,
2013-01-17 10:02:00,54.0,52.0,-100.00,West,276,0.0,2.0,94,0.00,,,-99.99,74.000000,,2013-01-17 20:02:00,
2013-01-17 10:12:00,54.0,52.0,-100.00,West,276,0.0,2.0,94,0.00,,,-99.99,74.000000,,2013-01-17 20:12:00,
2013-01-17 10:22:00,55.0,51.0,-100.00,South,183,0.0,4.0,87,0.00,,,0.00,80.000000,,2013-01-17 20:22:00,
2013-01-17 10:43:00,55.0,51.0,-100.00,South,183,0.0,4.0,87,0.00,,,0.00,80.000000,,2013-01-17 20:43:00,
2013-01-17 10:53:00,55.0,51.0,-100.00,South,183,0.0,4.0,87,0.00,,,0.00,80.000000,,2013-01-17 20:53:00,
2013-01-17 11:02:00,55.0,51.0,-100.00,South,183,0.0,4.0,87,0.00,,,0.00,80.000000,,2013-01-17 21:02:00,
2013-01-17 11:12:00,55.0,51.0,-100.00,South,183,0.0,4.0,87,0.00,,,0.00,80.000000,,2013-01-17 21:12:00,
2013-01-17 11:22:00,58.0,54.0,-100.00,West,270,1.0,5.0,85,0.00,,,0.00,223.000000,,2013-01-17 21:22:00,
2013-01-17 11:43:00,58.0,54.0,-100.00,West,270,1.0,5.0,85,0.00,,,0.00,223.000000,,2013-01-17 21:43:00,
2013-01-17 11:53:00,58.0,54.0,-100.00,West,270,1.0,5.0,85,0.00,,,0.00,223.000000,,2013-01-17 21:53:00,
2013-01-17 12:03:00,58.0,54.0,-100.00,West,270,1.0,5.0,85,0.00,,,0.00,223.000000,,2013-01-17 22:03:00,
2013-01-17 12:12:00,58.0,54.0,-100.00,West,270,1.0,5.0,85,0.00,,,0.00,223.000000,,2013-01-17 22:12:00,
2013-01-17 12:22:00,59.0,55.0,-100.00,WNW,284,1.0,5.0,87,0.00,,,0.00,266.000000,,2013-01-17 22:22:00,
2013-01-17 12:43:00,59.0,55.0,-100.00,WNW,284,1.0,5.0,87,0.00,,,0.00,266.000000,,2013-01-17 22:43:00,
2013-01-17 12:52:00,59.0,55.0,-100.00,WNW,284,1.0,5.0,87,0.00,,,0.00,266.000000,,2013-01-17 22:52:00,
2013-01-17 13:02:00,59.0,55.0,-100.00,WNW,284,1.0,5.0,87,0.00,,,0.00,266.000000,,2013-01-17 23:02:00,
2013-01-17 13:12:00,59.0,55.0,-100.00,WNW,284,1.0,5.0,87,0.00,,,0.00,266.000000,,2013-01-17 23:12:00,
2013-01-17 13:22:00,60.0,56.0,-100.00,WNW,285,1.0,6.0,87,0.00,,,0.00,290.000000,,2013-01-17 23:22:00,
2013-01-17 13:43:00,60.0,56.0,-100.00,WNW,285,1.0,6.0,87,0.00,,,0.00,290.000000,,2013-01-17 23:43:00,
2013-01-17 13:53:00,60.0,56.0,-100.00,WNW,285,1.0,6.0,87,0.00,,,0.00,290.000000,,2013-01-17 23:53:00,
2013-01-17 14:02:00,60.0,56.0,-100.00,WNW,285,1.0,6.0,87,0.00,,,0.00,290.000000,,2013-01-18 00:02:00,
2013-01-17 14:12:00,60.0,56.0,-100.00,WNW,285,1.0,6.0,87,0.00,,,0.00,290.000000,,2013-01-18 00:12:00,
2013-01-17 14:22:00,58.0,56.0,-100.00,WNW,282,1.0,4.0,94,0.00,,,0.00,180.000000,,2013-01-18 00:22:00,
2013-01-17 14:43:00,58.0,56.0,-100.00,WNW,282,1.0,4.0,94,0.00,,,0.00,180.000000,,2013-01-18 00:43:00,
2013-01-17 14:53:00,58.0,56.0,-100.00,WNW,282,1.0,4.0,94,0.00,,,0.00,180.000000,,2013-01-18 00:53:00,
2013-01-17 15:02:00,58.0,56.0,-100.00,WNW,282,1.0,4.0,94,0.00,,,0.00,180.000000,,2013-01-18 01:02:00,
2013-01-17 15:12:00,58.0,56.0,-100.00,WNW,282,1.0,4.0,94,0.00,,,0.00,180.000000,,2013-01-18 01:12:00,
2013-01-17 15:22:00,56.0,55.0,-100.00,West,281,1.0,4.0,96,0.00,,,0.00,115.000000,,2013-01-18 01:22:00,
2013-01-17 15:43:00,56.0,55.0,-100.00,West,281,1.0,4.0,96,0.00,,,0.00,115.000000,,2013-01-18 01:43:00,
2013-01-17 15:53:00,56.0,55.0,-100.00,West,281,1.0,4.0,96,0.00,,,0.00,115.000000,,2013-01-18 01:53:00,
2013-01-17 16:02:00,56.0,55.0,-100.00,West,281,1.0,4.0,96,0.00,,,0.00,115.000000,,2013-01-18 02:02:00,
2013-01-17 16:12:00,56.0,55.0,-100.00,West,281,1.0,4.0,96,0.00,,,0.00,115.000000,,2013-01-18 02:12:00,
2013-01-17 16:22:00,57.0,55.0,-100.00,West,271,1.0,6.0,94,0.00,,,0.00,163.000000,,2013-01-18 02:22:00,
2013-01-17 16:43:00,57.0,55.0,-100.00,West,271,1.0,6.0,94,0.00,,,0.00,163.000000,,2013-01-18 02:43:00,
2013-01-17 16:53:00,57.0,55.0,-100.00,West,271,1.0,6.0,94,0.00,,,0.00,163.000000,,2013-01-18 02:53:00,
2013-01-17 17:02:00,57.0,55.0,-100.00,West,271,1.0,6.0,94,0.00,,,0.00,163.000000,,2013-01-18 03:02:00,
2013-01-17 17:12:00,57.0,55.0,-100.00,West,271,1.0,6.0,94,0.00,,,0.00,163.000000,,2013-01-18 03:12:00,
2013-01-17 17:22:00,56.0,55.0,-100.00,West,271,1.0,6.0,95,0.00,,,0.00,62.000000,,2013-01-18 03:22:00,
2013-01-17 17:43:00,56.0,55.0,-100.00,West,271,1.0,6.0,95,0.00,,,0.00,62.000000,,2013-01-18 03:43:00,
2013-01-17 17:52:00,56.0,55.0,-100.00,West,271,1.0,6.0,95,0.00,,,0.00,62.000000,,2013-01-18 03:52:00,
2013-01-17 18:02:00,56.0,55.0,-100.00,West,271,1.0,6.0,95,0.00,,,0.00,62.000000,,2013-01-18 04:02:00,
2013-01-17 18:12:00,56.0,55.0,-100.00,West,271,1.0,6.0,95,0.00,,,0.00,62.000000,,2013-01-18 04:12:00,
2013-01-17 18:22:00,55.0,54.0,-100.00,West,278,1.0,4.0,96,0.00,,,0.00,15.000000,,2013-01-18 04:22:00,
2013-01-17 18:42:00,55.0,54.0,-100.00,West,278,1.0,4.0,96,0.00,,,0.00,15.000000,,2013-01-18 04:42:00,
2013-01-17 18:53:00,55.0,54.0,-100.00,West,278,1.0,4.0,96,0.00,,,0.00,15.000000,,2013-01-18 04:53:00,
2013-01-17 19:03:00,55.0,54.0,-100.00,West,278,1.0,4.0,96,0.00,,,0.00,15.000000,,2013-01-18 05:03:00,
2013-01-17 19:12:00,55.0,54.0,-100.00,West,278,1.0,4.0,96,0.00,,,0.00,15.000000,,2013-01-18 05:12:00,
2013-01-17 19:22:00,54.0,53.0,-100.00,NW,318,0.0,4.0,96,0.00,,,0.00,0.000000,,2013-01-18 05:22:00,
2013-01-17 19:43:00,54.0,53.0,-100.00,NW,318,0.0,4.0,96,0.00,,,0.00,0.000000,,2013-01-18 05:43:00,
2013-01-17 19:53:00,54.0,53.0,-100.00,NW,318,0.0,4.0,96,0.00,,,0.00,0.000000,,2013-01-18 05:53:00,
2013-01-17 20:02:00,54.0,53.0,-100.00,NW,318,0.0,4.0,96,0.00,,,0.00,0.000000,,2013-01-18 06:02:00,
2013-01-17 20:12:00,54.0,53.0,-100.00,NW,318,0.0,4.0,96,0.00,,,0.00,0.000000,,2013-01-18 06:12:00,
2013-01-17 20:22:00,52.0,51.0,-100.00,South,183,0.0,3.0,96,0.00,,,0.00,0.000000,,2013-01-18 06:22:00,
2013-01-17 20:43:00,52.0,51.0,-100.00,South,183,0.0,3.0,96,0.00,,,0.00,0.000000,,2013-01-18 06:43:00,
2013-01-17 20:52:00,52.0,51.0,-100.00,South,183,0.0,3.0,96,0.00,,,0.00,0.000000,,2013-01-18 06:52:00,
2013-01-17 21:02:00,52.0,51.0,-100.00,South,183,0.0,3.0,96,0.00,,,0.00,0.000000,,2013-01-18 07:02:00,
2013-01-17 21:12:00,52.0,51.0,-100.00,South,183,0.0,3.0,96,0.00,,,0.00,0.000000,,2013-01-18 07:12:00,
2013-01-17 21:22:00,53.0,52.0,-100.00,SSW,202,0.0,3.0,96,0.00,,,0.00,0.000000,,2013-01-18 07:22:00,
2013-01-17 21:42:00,53.0,52.0,-100.00,SSW,202,0.0,3.0,96,0.00,,,0.00,0.000000,,2013-01-18 07:42:00,
2013-01-17 21:52:00,53.0,52.0,-100.00,SSW,202,0.0,3.0,96,0.00,,,0.00,0.000000,,2013-01-18 07:52:00,
2013-01-17 22:02:00,53.0,52.0,-100.00,SSW,202,0.0,3.0,96,0.00,,,0.00,0.000000,,2013-01-18 08:02:00,
2013-01-17 22:11:00,53.0,52.0,-100.00,SSW,202,0.0,3.0,96,0.00,,,0.00,0.000000,,2013-01-18 08:11:00,
2013-01-17 22:22:00,52.0,51.0,-100.00,SSW,205,1.0,4.0,96,0.00,,,0.00,0.000000,,2013-01-18 08:22:00,
2013-01-17 22:43:00,52.0,51.0,-100.00,SSW,205,1.0,4.0,96,0.00,,,0.00,0.000000,,2013-01-18 08:43:00,
2013-01-17 22:53:00,52.0,51.0,-100.00,SSW,205,1.0,4.0,96,0.00,,,0.00,0.000000,,2013-01-18 08:53:00,
2013-01-17 23:02:00,52.0,51.0,-100.00,SSW,205,1.0,4.0,96,0.00,,,0.00,0.000000,,2013-01-18 09:02:00,
2013-01-17 23:12:00,52.0,51.0,-100.00,SSW,205,1.0,4.0,96,0.00,,,0.00,0.000000,,2013-01-18 09:12:00,
2013-01-17 23:22:00,52.0,51.0,-100.00,SSW,195,0.0,2.0,96,0.00,,,0.00,0.000000,,2013-01-18 09:22:00,
2013-01-17 23:42:00,52.0,51.0,-100.00,SSW,195,0.0,2.0,96,0.00,,,0.00,0.000000,,2013-01-18 09:42:00,
2013-01-17 23:52:00,52.0,51.0,-100.00,SSW,195,0.0,2.0,96,0.00,,,0.00,0.000000,,2013-01-18 09:52:00,